This demonstration page uses our WeatherBlox Daily Observations layout. Learn more.

36.17497, -115.13722

Hourly Observations for June 27, 2015

Temp ( °F °C ) Dew Point ( °F °C ) Humidity (%) Winds ( mph kmh ) Pressure ( in mb ) Visibility ( mi km ) Precip ( " mm )
12:53 am 00:53 Clear 97 36.1 32 0 10 10 NW 16 26 29.79 1009 10 16.0934 0 0
1:53 am 01:53 Clear 98 36.7 33 0.6 10 10 NW 13 20 29.8 1009 10 16.0934 0 0
2:53 am 02:53 Clear 93 33.9 33 0.6 12 12 N 10 17 29.8 1009 10 16.0934 0 0
3:53 am 03:53 Clear 93 33.9 32 0 11 11 NNW 10 17 29.8 1009 10 16.0934 0 0
4:53 am 04:53 Clear 91 32.8 33 0.6 13 13 Calm 29.83 1010 10 16.0934 0 0
5:53 am 05:53 Sunny 90 32.2 32 0 13 13 NNW 8 13 29.85 1011 10 16.0934 0 0
6:53 am 06:53 Sunny 90 32.2 34 1.1 14 14 Calm 29.87 1012 10 16.0934 0 0
7:53 am 07:53 Sunny 92 33.3 36 2.2 14 14 SSE 5 7 29.89 1012 10 16.0934 0 0
8:53 am 08:53 Sunny 96 35.6 40 4.4 14 14 S 6 9 29.9 1013 10 16.0934 0 0
9:53 am 09:53 Sunny 99 37.2 40 4.4 13 13 SE 7 11 29.9 1012 10 16.0934 0 0
10:53 am 10:53 Sunny 101 38.3 40 4.4 12 12 SSE 7 11 29.89 1012 10 16.0934 0 0
11:53 am 11:53 Sunny 104 40 44 6.7 13 13 E 8 13 29.87 1012 10 16.0934 0 0
12:53 pm 12:53 Sunny 106 41.1 44 6.7 12 12 SE 6 9 29.85 1011 10 16.0934 0 0
1:53 pm 13:53 Sunny 108 42.2 43 6.1 11 11 SE 7 11 29.82 1010 10 16.0934 0 0
2:53 pm 14:53 Sunny 110 43.3 45 7.2 11 11 E 13 20 29.79 1009 10 16.0934 0 0
3:53 pm 15:53 Sunny 109 42.8 39 3.9 9 9 Calm 29.76 1008 10 16.0934 0 0
4:53 pm 16:53 Sunny 110 43.3 46 7.8 12 12 ESE 15 24 29.75 1007 10 16.0934 0 0
5:53 pm 17:53 Sunny 110 43.3 43 6.1 10 10 SSE 17 28 29.73 1007 10 16.0934 0 0
6:53 pm 18:53 Sunny 109 42.8 38 3.3 9 9 SSE 15 24 29.72 1006 10 16.0934 0 0
7:53 pm 19:53 Sunny 106 41.1 36 2.2 9 9 WSW 10 17 29.73 1007 10 16.0934 0 0
8:53 pm 20:53 Clear 104 40 35 1.7 9 9 WSW 14 22 29.74 1007 10 16.0934 0 0
9:53 pm 21:53 Clear 102 38.9 35 1.7 10 10 WSW 12 19 29.76 1008 10 16.0934 0 0
10:53 pm 22:53 Clear 100 37.8 33 0.6 10 10 SSW 7 11 29.78 1008 10 16.0934 0 0
11:53 pm 23:53 Clear 98 36.7 33 0.6 10 10 SW 6 9 29.78 1008 10 16.0934 0 0

Powered by AerisWeather